sensor_id;sensor_type;location;lat;lon;timestamp;pressure;altitude;pressure_sealevel;temperature;humidity
42669;BME280;29384;42.028;21.388;2022-07-29T00:01:50;98450.50;;;22.77;96.59
42669;BME280;29384;42.028;21.388;2022-07-29T00:04:18;98451.84;;;22.83;95.33
42669;BME280;29384;42.028;21.388;2022-07-29T00:06:43;98448.97;;;22.88;95.66
42669;BME280;29384;42.028;21.388;2022-07-29T00:09:09;98448.97;;;22.88;94.67
42669;BME280;29384;42.028;21.388;2022-07-29T00:11:34;98447.84;;;22.89;93.36
42669;BME280;29384;42.028;21.388;2022-07-29T00:14:00;98440.84;;;22.85;91.89
42669;BME280;29384;42.028;21.388;2022-07-29T00:16:25;98443.25;;;22.78;91.68
42669;BME280;29384;42.028;21.388;2022-07-29T00:18:51;98442.03;;;22.75;91.28
42669;BME280;29384;42.028;21.388;2022-07-29T00:24:37;98446.72;;;22.78;91.85
42669;BME280;29384;42.028;21.388;2022-07-29T00:27:03;98441.72;;;22.77;91.71
42669;BME280;29384;42.028;21.388;2022-07-29T00:29:28;98445.16;;;22.77;92.28
42669;BME280;29384;42.028;21.388;2022-07-29T00:31:54;98444.25;;;22.73;92.33
42669;BME280;29384;42.028;21.388;2022-07-29T00:34:19;98442.13;;;22.66;92.57
42669;BME280;29384;42.028;21.388;2022-07-29T00:37:03;98439.97;;;22.60;94.11
42669;BME280;29384;42.028;21.388;2022-07-29T00:39:29;98433.53;;;22.61;95.44
42669;BME280;29384;42.028;21.388;2022-07-29T00:41:54;98425.53;;;22.61;96.81
42669;BME280;29384;42.028;21.388;2022-07-29T00:44:20;98434.91;;;22.67;96.56
42669;BME280;29384;42.028;21.388;2022-07-29T00:46:45;98436.56;;;22.72;95.34
42669;BME280;29384;42.028;21.388;2022-07-29T00:49:11;98441.00;;;22.67;95.24
42669;BME280;29384;42.028;21.388;2022-07-29T00:54:58;98441.75;;;22.56;94.92
42669;BME280;29384;42.028;21.388;2022-07-29T00:57:24;98443.63;;;22.55;95.05
42669;BME280;29384;42.028;21.388;2022-07-29T00:59:50;98441.59;;;22.52;96.01
42669;BME280;29384;42.028;21.388;2022-07-29T01:02:15;98442.00;;;22.42;96.70
42669;BME280;29384;42.028;21.388;2022-07-29T01:04:41;98435.41;;;22.18;98.77
42669;BME280;29384;42.028;21.388;2022-07-29T01:07:06;98442.81;;;22.13;99.33
42669;BME280;29384;42.028;21.388;2022-07-29T01:09:33;98448.63;;;22.06;99.65
42669;BME280;29384;42.028;21.388;2022-07-29T01:12:00;98454.34;;;21.96;98.84
42669;BME280;29384;42.028;21.388;2022-07-29T01:14:26;98448.41;;;21.90;98.87
42669;BME280;29384;42.028;21.388;2022-07-29T01:16:59;98457.09;;;21.79;98.09
42669;BME280;29384;42.028;21.388;2022-07-29T01:25:10;98461.63;;;21.78;97.73
42669;BME280;29384;42.028;21.388;2022-07-29T01:28:14;98454.25;;;21.84;97.55
42669;BME280;29384;42.028;21.388;2022-07-29T01:30:47;98455.84;;;21.76;97.84
42669;BME280;29384;42.028;21.388;2022-07-29T01:33:17;98452.22;;;21.81;97.56
42669;BME280;29384;42.028;21.388;2022-07-29T01:36:05;98447.81;;;21.85;96.82
42669;BME280;29384;42.028;21.388;2022-07-29T01:38:33;98452.25;;;21.72;98.05
42669;BME280;29384;42.028;21.388;2022-07-29T01:41:05;98448.22;;;21.66;97.58
42669;BME280;29384;42.028;21.388;2022-07-29T01:43:42;98448.22;;;21.66;97.96
42669;BME280;29384;42.028;21.388;2022-07-29T01:46:13;98449.44;;;21.68;98.83
42669;BME280;29384;42.028;21.388;2022-07-29T01:48:51;98434.91;;;21.66;98.72
42669;BME280;29384;42.028;21.388;2022-07-29T01:51:21;98439.44;;;21.65;97.54
42669;BME280;29384;42.028;21.388;2022-07-29T01:54:02;98440.22;;;21.66;97.15
42669;BME280;29384;42.028;21.388;2022-07-29T01:56:31;98431.78;;;21.64;97.10
42669;BME280;29384;42.028;21.388;2022-07-29T01:58:59;98432.56;;;21.64;97.73
42669;BME280;29384;42.028;21.388;2022-07-29T02:01:27;98428.94;;;21.69;97.34
42669;BME280;29384;42.028;21.388;2022-07-29T02:03:53;98427.88;;;21.70;97.54
42669;BME280;29384;42.028;21.388;2022-07-29T02:06:22;98431.94;;;21.67;97.92
42669;BME280;29384;42.028;21.388;2022-07-29T02:08:49;98438.94;;;21.72;97.73
42669;BME280;29384;42.028;21.388;2022-07-29T02:11:16;98443.50;;;21.71;98.42
42669;BME280;29384;42.028;21.388;2022-07-29T02:13:42;98443.50;;;21.71;99.07
42669;BME280;29384;42.028;21.388;2022-07-29T02:16:09;98435.84;;;21.70;98.87
42669;BME280;29384;42.028;21.388;2022-07-29T02:18:41;98442.31;;;21.52;99.23
42669;BME280;29384;42.028;21.388;2022-07-29T02:21:09;98441.88;;;21.50;98.47
42669;BME280;29384;42.028;21.388;2022-07-29T02:23:36;98443.91;;;21.53;98.89
42669;BME280;29384;42.028;21.388;2022-07-29T02:26:02;98439.50;;;21.48;99.66
42669;BME280;29384;42.028;21.388;2022-07-29T02:28:29;98439.72;;;21.34;100.00
42669;BME280;29384;42.028;21.388;2022-07-29T02:30:58;98435.47;;;21.33;100.00
42669;BME280;29384;42.028;21.388;2022-07-29T02:33:25;98435.66;;;21.28;100.00
42669;BME280;29384;42.028;21.388;2022-07-29T02:35:52;98436.88;;;21.31;100.00
42669;BME280;29384;42.028;21.388;2022-07-29T02:38:18;98444.56;;;21.32;100.00
42669;BME280;29384;42.028;21.388;2022-07-29T02:41:17;98431.09;;;21.37;100.00
42669;BME280;29384;42.028;21.388;2022-07-29T02:43:50;98431.09;;;21.37;100.00
42669;BME280;29384;42.028;21.388;2022-07-29T02:46:23;98437.06;;;21.34;100.00
42669;BME280;29384;42.028;21.388;2022-07-29T02:49:07;98436.09;;;21.30;100.00
42669;BME280;29384;42.028;21.388;2022-07-29T02:51:43;98434.09;;;21.27;100.00
42669;BME280;29384;42.028;21.388;2022-07-29T02:54:14;98436.59;;;21.32;100.00
42669;BME280;29384;42.028;21.388;2022-07-29T02:56:45;98438.31;;;21.28;100.00
42669;BME280;29384;42.028;21.388;2022-07-29T02:59:13;98440.06;;;21.24;100.00
42669;BME280;29384;42.028;21.388;2022-07-29T03:01:42;98448.81;;;21.16;100.00
42669;BME280;29384;42.028;21.388;2022-07-29T03:04:09;98452.09;;;21.21;100.00
42669;BME280;29384;42.028;21.388;2022-07-29T03:06:37;98452.09;;;21.13;100.00
42669;BME280;29384;42.028;21.388;2022-07-29T03:09:07;98453.06;;;21.08;100.00
42669;BME280;29384;42.028;21.388;2022-07-29T03:11:34;98455.28;;;20.97;100.00
42669;BME280;29384;42.028;21.388;2022-07-29T03:14:00;98451.84;;;20.88;100.00
42669;BME280;29384;42.028;21.388;2022-07-29T03:16:26;98462.94;;;20.90;100.00
42669;BME280;29384;42.028;21.388;2022-07-29T03:18:52;98465.59;;;20.90;100.00
42669;BME280;29384;42.028;21.388;2022-07-29T03:21:18;98454.81;;;20.95;100.00
42669;BME280;29384;42.028;21.388;2022-07-29T03:23:44;98461.06;;;20.99;100.00
42669;BME280;29384;42.028;21.388;2022-07-29T03:26:13;98450.13;;;20.92;100.00
42669;BME280;29384;42.028;21.388;2022-07-29T03:28:39;98459.19;;;21.00;100.00
42669;BME280;29384;42.028;21.388;2022-07-29T03:31:04;98471.69;;;20.99;100.00
42669;BME280;29384;42.028;21.388;2022-07-29T03:33:30;98467.47;;;20.98;100.00
42669;BME280;29384;42.028;21.388;2022-07-29T03:35:56;98474.19;;;20.87;100.00
42669;BME280;29384;42.028;21.388;2022-07-29T03:38:24;98477.78;;;20.91;100.00
42669;BME280;29384;42.028;21.388;2022-07-29T03:40:57;98481.25;;;20.92;100.00
42669;BME280;29384;42.028;21.388;2022-07-29T03:43:25;98481.06;;;20.88;100.00
42669;BME280;29384;42.028;21.388;2022-07-29T03:45:57;98489.53;;;20.90;100.00
42669;BME280;29384;42.028;21.388;2022-07-29T03:48:25;98480.13;;;20.84;100.00
42669;BME280;29384;42.028;21.388;2022-07-29T03:50:51;98491.69;;;20.88;100.00
42669;BME280;29384;42.028;21.388;2022-07-29T03:53:17;98489.53;;;20.90;100.00
42669;BME280;29384;42.028;21.388;2022-07-29T03:55:46;98491.38;;;20.98;99.79
42669;BME280;29384;42.028;21.388;2022-07-29T03:58:13;98486.22;;;21.02;100.00
42669;BME280;29384;42.028;21.388;2022-07-29T04:00:40;98485.13;;;21.12;100.00
42669;BME280;29384;42.028;21.388;2022-07-29T04:03:06;98494.16;;;21.19;98.52
42669;BME280;29384;42.028;21.388;2022-07-29T04:05:32;98496.53;;;21.21;98.72
42669;BME280;29384;42.028;21.388;2022-07-29T04:07:57;98490.56;;;21.33;97.89
42669;BME280;29384;42.028;21.388;2022-07-29T04:10:23;98490.41;;;21.46;97.66
42669;BME280;29384;42.028;21.388;2022-07-29T04:12:49;98489.44;;;21.51;98.07
42669;BME280;29384;42.028;21.388;2022-07-29T04:15:14;98491.13;;;21.64;97.17
42669;BME280;29384;42.028;21.388;2022-07-29T04:17:40;98481.38;;;21.68;96.27
42669;BME280;29384;42.028;21.388;2022-07-29T04:20:06;98494.97;;;21.84;95.50
42669;BME280;29384;42.028;21.388;2022-07-29T04:25:53;98497.16;;;22.21;93.52
42669;BME280;29384;42.028;21.388;2022-07-29T04:28:18;98498.66;;;22.30;93.12
42669;BME280;29384;42.028;21.388;2022-07-29T04:30:44;98495.28;;;22.42;92.85
42669;BME280;29384;42.028;21.388;2022-07-29T04:33:09;98488.84;;;22.64;92.70
42669;BME280;29384;42.028;21.388;2022-07-29T04:35:38;98492.50;;;22.80;91.97
42669;BME280;29384;42.028;21.388;2022-07-29T04:38:05;98494.56;;;22.96;92.78
42669;BME280;29384;42.028;21.388;2022-07-29T04:40:31;98504.19;;;23.09;91.73
42669;BME280;29384;42.028;21.388;2022-07-29T04:42:59;98491.56;;;23.18;89.56
42669;BME280;29384;42.028;21.388;2022-07-29T04:45:24;98498.38;;;23.40;87.78
42669;BME280;29384;42.028;21.388;2022-07-29T04:47:50;98505.63;;;23.52;86.74
42669;BME280;29384;42.028;21.388;2022-07-29T04:50:15;98505.97;;;23.62;86.18
42669;BME280;29384;42.028;21.388;2022-07-29T04:56:03;98501.03;;;23.85;84.35
42669;BME280;29384;42.028;21.388;2022-07-29T04:58:28;98512.69;;;24.05;82.98
42669;BME280;29384;42.028;21.388;2022-07-29T05:00:54;98511.50;;;24.03;82.76
42669;BME280;29384;42.028;21.388;2022-07-29T05:03:20;98514.13;;;24.27;81.67
42669;BME280;29384;42.028;21.388;2022-07-29T05:05:45;98514.00;;;24.36;82.19
42669;BME280;29384;42.028;21.388;2022-07-29T05:08:11;98508.47;;;24.17;81.94
42669;BME280;29384;42.028;21.388;2022-07-29T05:10:36;98515.38;;;24.42;80.91
42669;BME280;29384;42.028;21.388;2022-07-29T05:13:06;98514.53;;;24.66;79.04
42669;BME280;29384;42.028;21.388;2022-07-29T05:15:33;98527.41;;;24.89;77.48
42669;BME280;29384;42.028;21.388;2022-07-29T05:18:00;98513.78;;;24.94;77.60
42669;BME280;29384;42.028;21.388;2022-07-29T05:20:26;98517.28;;;25.10;77.79
42669;BME280;29384;42.028;21.388;2022-07-29T05:26:32;98514.81;;;25.17;75.62
42669;BME280;29384;42.028;21.388;2022-07-29T05:28:57;98514.88;;;25.49;73.67
42669;BME280;29384;42.028;21.388;2022-07-29T05:31:23;98519.44;;;25.64;73.71
42669;BME280;29384;42.028;21.388;2022-07-29T05:33:48;98520.63;;;25.51;74.81
42669;BME280;29384;42.028;21.388;2022-07-29T05:36:14;98524.28;;;25.74;72.73
42669;BME280;29384;42.028;21.388;2022-07-29T05:38:39;98534.50;;;25.85;72.88
42669;BME280;29384;42.028;21.388;2022-07-29T05:41:05;98526.13;;;25.86;73.28
42669;BME280;29384;42.028;21.388;2022-07-29T05:43:30;98517.13;;;25.79;71.82
42669;BME280;29384;42.028;21.388;2022-07-29T05:45:57;98528.56;;;25.91;71.93
42669;BME280;29384;42.028;21.388;2022-07-29T05:48:22;98530.50;;;26.10;71.88
42669;BME280;29384;42.028;21.388;2022-07-29T05:50:48;98532.19;;;26.50;71.04
42669;BME280;29384;42.028;21.388;2022-07-29T05:53:14;98536.66;;;26.81;69.72
42669;BME280;29384;42.028;21.388;2022-07-29T05:55:40;98530.53;;;27.00;68.26
42669;BME280;29384;42.028;21.388;2022-07-29T05:58:05;98536.53;;;26.93;66.89
42669;BME280;29384;42.028;21.388;2022-07-29T06:00:30;98538.03;;;26.72;66.40
42669;BME280;29384;42.028;21.388;2022-07-29T06:02:56;98536.88;;;27.11;65.83
42669;BME280;29384;42.028;21.388;2022-07-29T06:05:22;98539.41;;;27.43;65.65
42669;BME280;29384;42.028;21.388;2022-07-29T06:11:09;98540.19;;;27.90;63.34
42669;BME280;29384;42.028;21.388;2022-07-29T06:13:35;98540.56;;;28.15;62.02
42669;BME280;29384;42.028;21.388;2022-07-29T06:16:00;98548.88;;;28.55;58.89
42669;BME280;29384;42.028;21.388;2022-07-29T06:18:26;98546.66;;;28.65;57.96
42669;BME280;29384;42.028;21.388;2022-07-29T06:20:52;98540.22;;;28.73;58.79
42669;BME280;29384;42.028;21.388;2022-07-29T06:23:19;98536.91;;;28.83;58.60
42669;BME280;29384;42.028;21.388;2022-07-29T06:25:45;98546.44;;;29.07;56.82
42669;BME280;29384;42.028;21.388;2022-07-29T06:28:11;98539.47;;;28.42;57.46
42669;BME280;29384;42.028;21.388;2022-07-29T06:30:37;98542.94;;;28.20;59.52
42669;BME280;29384;42.028;21.388;2022-07-29T06:33:03;98536.34;;;28.40;57.08
42669;BME280;29384;42.028;21.388;2022-07-29T06:35:29;98537.31;;;28.85;56.90
42669;BME280;29384;42.028;21.388;2022-07-29T06:41:16;98536.59;;;28.88;55.87
42669;BME280;29384;42.028;21.388;2022-07-29T06:43:42;98537.66;;;28.80;55.69
42669;BME280;29384;42.028;21.388;2022-07-29T06:46:14;98533.09;;;28.84;55.49
42669;BME280;29384;42.028;21.388;2022-07-29T06:48:41;98536.50;;;29.15;54.73
42669;BME280;29384;42.028;21.388;2022-07-29T06:51:10;98534.47;;;29.04;54.48
42669;BME280;29384;42.028;21.388;2022-07-29T06:53:39;98529.31;;;28.92;55.85
42669;BME280;29384;42.028;21.388;2022-07-29T06:56:06;98534.03;;;28.99;54.99
42669;BME280;29384;42.028;21.388;2022-07-29T06:58:34;98536.78;;;29.43;53.46
42669;BME280;29384;42.028;21.388;2022-07-29T07:01:05;98538.28;;;29.78;52.67
42669;BME280;29384;42.028;21.388;2022-07-29T07:03:30;98534.16;;;29.91;52.00
42669;BME280;29384;42.028;21.388;2022-07-29T07:05:56;98535.78;;;30.03;51.26
42669;BME280;29384;42.028;21.388;2022-07-29T07:11:43;98523.78;;;29.49;54.19
42669;BME280;29384;42.028;21.388;2022-07-29T07:14:08;98527.44;;;29.30;54.21
42669;BME280;29384;42.028;21.388;2022-07-29T07:16:34;98524.06;;;29.81;52.74
42669;BME280;29384;42.028;21.388;2022-07-29T07:18:59;98526.25;;;30.16;53.04
42669;BME280;29384;42.028;21.388;2022-07-29T07:21:25;98531.34;;;30.25;51.40
42669;BME280;29384;42.028;21.388;2022-07-29T07:23:51;98526.13;;;30.57;50.40
42669;BME280;29384;42.028;21.388;2022-07-29T07:26:16;98520.00;;;30.71;49.75
42669;BME280;29384;42.028;21.388;2022-07-29T07:28:42;98529.41;;;30.26;48.72
42669;BME280;29384;42.028;21.388;2022-07-29T07:31:08;98526.19;;;30.09;51.64
42669;BME280;29384;42.028;21.388;2022-07-29T07:33:34;98529.06;;;30.34;49.40
42669;BME280;29384;42.028;21.388;2022-07-29T07:36:00;98522.25;;;30.58;48.85
42669;BME280;29384;42.028;21.388;2022-07-29T07:41:47;98521.88;;;30.60;50.01
42669;BME280;29384;42.028;21.388;2022-07-29T07:44:12;98524.75;;;30.95;47.16
42669;BME280;29384;42.028;21.388;2022-07-29T07:46:38;98522.00;;;30.92;47.24
42669;BME280;29384;42.028;21.388;2022-07-29T07:49:03;98533.09;;;30.69;49.46
42669;BME280;29384;42.028;21.388;2022-07-29T07:51:29;98522.78;;;30.89;49.30
42669;BME280;29384;42.028;21.388;2022-07-29T07:53:54;98527.06;;;31.04;47.45
42669;BME280;29384;42.028;21.388;2022-07-29T07:56:20;98525.53;;;31.00;47.06
42669;BME280;29384;42.028;21.388;2022-07-29T07:58:45;98518.50;;;30.81;47.76
42669;BME280;29384;42.028;21.388;2022-07-29T08:01:11;98516.47;;;30.63;49.91
42669;BME280;29384;42.028;21.388;2022-07-29T08:03:37;98510.84;;;30.90;48.93
42669;BME280;29384;42.028;21.388;2022-07-29T08:06:03;98519.75;;;31.08;45.77
42669;BME280;29384;42.028;21.388;2022-07-29T08:11:51;98515.53;;;31.25;45.42
42669;BME280;29384;42.028;21.388;2022-07-29T08:14:17;98514.81;;;31.39;45.81
42669;BME280;29384;42.028;21.388;2022-07-29T08:16:42;98513.66;;;31.58;46.73
42669;BME280;29384;42.028;21.388;2022-07-29T08:19:08;98520.16;;;31.10;46.59
42669;BME280;29384;42.028;21.388;2022-07-29T08:21:34;98514.75;;;31.10;46.61
42669;BME280;29384;42.028;21.388;2022-07-29T08:24:00;98508.56;;;31.03;46.10
42669;BME280;29384;42.028;21.388;2022-07-29T08:26:44;98507.78;;;31.06;48.73
42669;BME280;29384;42.028;21.388;2022-07-29T08:29:10;98509.38;;;31.21;47.25
42669;BME280;29384;42.028;21.388;2022-07-29T08:31:37;98510.59;;;31.56;45.32
42669;BME280;29384;42.028;21.388;2022-07-29T08:34:03;98513.28;;;31.70;45.02
42669;BME280;29384;42.028;21.388;2022-07-29T08:36:30;98497.44;;;31.54;48.94
42669;BME280;29384;42.028;21.388;2022-07-29T08:42:16;98495.50;;;31.48;46.05
42669;BME280;29384;42.028;21.388;2022-07-29T08:44:42;98496.28;;;31.34;47.02
42669;BME280;29384;42.028;21.388;2022-07-29T08:47:14;98500.91;;;31.69;46.85
42669;BME280;29384;42.028;21.388;2022-07-29T08:49:40;98496.69;;;31.89;45.42
42669;BME280;29384;42.028;21.388;2022-07-29T08:52:06;98487.41;;;31.55;48.09
42669;BME280;29384;42.028;21.388;2022-07-29T08:54:32;98480.06;;;31.52;51.26
42669;BME280;29384;42.028;21.388;2022-07-29T08:56:59;98477.38;;;31.45;49.05
42669;BME280;29384;42.028;21.388;2022-07-29T08:59:27;98488.97;;;31.66;47.87
42669;BME280;29384;42.028;21.388;2022-07-29T09:01:54;98483.16;;;31.79;47.88
42669;BME280;29384;42.028;21.388;2022-07-29T09:04:20;98473.50;;;31.81;48.10
42669;BME280;29384;42.028;21.388;2022-07-29T09:06:48;98478.88;;;32.13;46.45
42669;BME280;29384;42.028;21.388;2022-07-29T09:09:14;98483.56;;;31.52;46.18
42669;BME280;29384;42.028;21.388;2022-07-29T09:11:41;98472.31;;;32.04;43.92
42669;BME280;29384;42.028;21.388;2022-07-29T09:14:07;98483.94;;;31.72;45.00
42669;BME280;29384;42.028;21.388;2022-07-29T09:16:53;98481.22;;;31.83;43.87
42669;BME280;29384;42.028;21.388;2022-07-29T09:19:21;98482.00;;;31.55;44.56
42669;BME280;29384;42.028;21.388;2022-07-29T09:21:47;98468.84;;;31.85;44.94
42669;BME280;29384;42.028;21.388;2022-07-29T09:24:27;98470.69;;;32.35;43.13
42669;BME280;29384;42.028;21.388;2022-07-29T09:26:52;98464.06;;;32.50;43.44
42669;BME280;29384;42.028;21.388;2022-07-29T09:29:20;98462.88;;;32.62;43.27
42669;BME280;29384;42.028;21.388;2022-07-29T09:31:48;98460.19;;;32.55;42.61
42669;BME280;29384;42.028;21.388;2022-07-29T09:34:16;98454.78;;;32.55;42.09
42669;BME280;29384;42.028;21.388;2022-07-29T09:36:44;98452.88;;;32.52;41.60
42669;BME280;29384;42.028;21.388;2022-07-29T09:42:31;98446.31;;;32.38;43.50
42669;BME280;29384;42.028;21.388;2022-07-29T09:44:58;98449.84;;;32.21;43.32
42669;BME280;29384;42.028;21.388;2022-07-29T09:47:40;98443.94;;;32.58;42.59
42669;BME280;29384;42.028;21.388;2022-07-29T09:50:07;98440.03;;;32.63;43.34
42669;BME280;29384;42.028;21.388;2022-07-29T09:52:45;98432.75;;;32.53;42.68
42669;BME280;29384;42.028;21.388;2022-07-29T09:55:12;98432.03;;;32.42;42.97
42669;BME280;29384;42.028;21.388;2022-07-29T09:57:37;98431.66;;;32.29;44.25
42669;BME280;29384;42.028;21.388;2022-07-29T10:00:17;98431.59;;;32.47;43.42
42669;BME280;29384;42.028;21.388;2022-07-29T10:02:45;98422.72;;;32.39;41.07
42669;BME280;29384;42.028;21.388;2022-07-29T10:10:26;98403.97;;;32.80;40.95
42669;BME280;29384;42.028;21.388;2022-07-29T10:13:00;98414.00;;;32.83;42.04
42669;BME280;29384;42.028;21.388;2022-07-29T10:15:28;98407.94;;;32.61;40.21
42669;BME280;29384;42.028;21.388;2022-07-29T10:17:55;98403.44;;;32.37;40.99
42669;BME280;29384;42.028;21.388;2022-07-29T10:20:22;98400.22;;;32.60;41.21
42669;BME280;29384;42.028;21.388;2022-07-29T10:22:48;98387.09;;;32.58;42.04
42669;BME280;29384;42.028;21.388;2022-07-29T10:25:15;98391.03;;;32.43;42.28
42669;BME280;29384;42.028;21.388;2022-07-29T10:27:42;98393.38;;;32.45;41.85
42669;BME280;29384;42.028;21.388;2022-07-29T10:30:08;98384.16;;;32.24;41.66
42669;BME280;29384;42.028;21.388;2022-07-29T10:43:37;98369.47;;;32.22;40.07
42669;BME280;29384;42.028;21.388;2022-07-29T10:46:06;98359.44;;;32.19;41.91
42669;BME280;29384;42.028;21.388;2022-07-29T10:48:32;98361.66;;;32.42;39.86
42669;BME280;29384;42.028;21.388;2022-07-29T10:51:00;98365.53;;;32.44;41.26
42669;BME280;29384;42.028;21.388;2022-07-29T10:53:50;98366.63;;;32.54;40.75
42669;BME280;29384;42.028;21.388;2022-07-29T10:56:26;98361.16;;;32.61;40.21
42669;BME280;29384;42.028;21.388;2022-07-29T11:01:52;98359.47;;;32.81;41.06
42669;BME280;29384;42.028;21.388;2022-07-29T11:07:11;98347.91;;;32.77;40.87
42669;BME280;29384;42.028;21.388;2022-07-29T11:09:38;98342.22;;;32.57;40.75
42669;BME280;29384;42.028;21.388;2022-07-29T11:15:01;98342.16;;;32.68;40.27
42669;BME280;29384;42.028;21.388;2022-07-29T11:17:28;98331.72;;;32.67;41.89
42669;BME280;29384;42.028;21.388;2022-07-29T11:20:36;98334.31;;;32.84;38.54
42669;BME280;29384;42.028;21.388;2022-07-29T11:26:21;98329.78;;;32.71;39.59
42669;BME280;29384;42.028;21.388;2022-07-29T11:31:47;98306.09;;;32.82;39.14
42669;BME280;29384;42.028;21.388;2022-07-29T11:34:23;98301.16;;;32.70;42.74
42669;BME280;29384;42.028;21.388;2022-07-29T11:37:14;98308.41;;;32.83;39.69
42669;BME280;29384;42.028;21.388;2022-07-29T11:43:02;98303.84;;;32.73;40.38
42669;BME280;29384;42.028;21.388;2022-07-29T11:45:45;98301.91;;;32.74;40.66
42669;BME280;29384;42.028;21.388;2022-07-29T11:48:17;98295.38;;;32.68;38.78
42669;BME280;29384;42.028;21.388;2022-07-29T11:50:44;98294.50;;;32.78;39.84
42669;BME280;29384;42.028;21.388;2022-07-29T11:53:11;98291.25;;;33.01;40.20
42669;BME280;29384;42.028;21.388;2022-07-29T11:55:39;98293.63;;;32.92;40.21
42669;BME280;29384;42.028;21.388;2022-07-29T11:58:05;98288.66;;;32.87;37.38
42669;BME280;29384;42.028;21.388;2022-07-29T12:00:33;98287.53;;;32.80;39.85
42669;BME280;29384;42.028;21.388;2022-07-29T12:03:01;98283.88;;;33.05;39.85
42669;BME280;29384;42.028;21.388;2022-07-29T12:08:17;98291.16;;;32.63;37.01
42669;BME280;29384;42.028;21.388;2022-07-29T12:10:48;98283.03;;;32.63;41.07
42669;BME280;29384;42.028;21.388;2022-07-29T12:13:16;98287.78;;;32.48;37.61
42669;BME280;29384;42.028;21.388;2022-07-29T12:15:51;98284.16;;;32.69;36.91
42669;BME280;29384;42.028;21.388;2022-07-29T12:18:18;98277.50;;;32.77;38.31
42669;BME280;29384;42.028;21.388;2022-07-29T12:20:46;98270.94;;;32.75;39.03
42669;BME280;29384;42.028;21.388;2022-07-29T12:23:11;98276.31;;;32.78;38.19
42669;BME280;29384;42.028;21.388;2022-07-29T12:25:38;98271.63;;;32.86;38.64
42669;BME280;29384;42.028;21.388;2022-07-29T12:28:10;98271.19;;;32.91;38.56
42669;BME280;29384;42.028;21.388;2022-07-29T12:30:40;98268.03;;;33.00;37.98
42669;BME280;29384;42.028;21.388;2022-07-29T12:33:27;98274.16;;;33.07;37.32
42669;BME280;29384;42.028;21.388;2022-07-29T12:35:58;98265.38;;;32.93;37.53
42669;BME280;29384;42.028;21.388;2022-07-29T12:38:24;98250.69;;;32.94;37.60
42669;BME280;29384;42.028;21.388;2022-07-29T12:40:52;98253.59;;;33.14;38.21
42669;BME280;29384;42.028;21.388;2022-07-29T12:43:23;98251.78;;;33.00;36.66
42669;BME280;29384;42.028;21.388;2022-07-29T12:45:51;98249.13;;;32.93;37.95
42669;BME280;29384;42.028;21.388;2022-07-29T12:48:17;98247.97;;;32.94;37.72
42669;BME280;29384;42.028;21.388;2022-07-29T12:50:59;98240.53;;;33.05;37.47
42669;BME280;29384;42.028;21.388;2022-07-29T12:53:26;98235.47;;;33.07;36.34
42669;BME280;29384;42.028;21.388;2022-07-29T12:55:52;98234.44;;;32.94;37.11
42669;BME280;29384;42.028;21.388;2022-07-29T13:01:16;98230.22;;;32.85;36.73
42669;BME280;29384;42.028;21.388;2022-07-29T13:09:13;98221.41;;;32.78;35.52
42669;BME280;29384;42.028;21.388;2022-07-29T13:11:49;98222.09;;;32.85;35.48
42669;BME280;29384;42.028;21.388;2022-07-29T13:14:39;98216.72;;;32.82;35.21
42669;BME280;29384;42.028;21.388;2022-07-29T13:17:13;98216.66;;;32.89;36.07
42669;BME280;29384;42.028;21.388;2022-07-29T13:19:46;98214.31;;;32.95;35.11
42669;BME280;29384;42.028;21.388;2022-07-29T13:22:20;98212.03;;;32.86;35.59
42669;BME280;29384;42.028;21.388;2022-07-29T13:24:50;98210.47;;;32.89;36.57
42669;BME280;29384;42.028;21.388;2022-07-29T13:27:18;98210.00;;;33.01;35.99
42669;BME280;29384;42.028;21.388;2022-07-29T13:29:44;98209.13;;;33.07;35.45
42669;BME280;29384;42.028;21.388;2022-07-29T13:32:09;98212.72;;;33.01;35.12
42669;BME280;29384;42.028;21.388;2022-07-29T13:34:36;98209.41;;;33.20;33.79
42669;BME280;29384;42.028;21.388;2022-07-29T13:37:01;98203.66;;;33.15;33.34
42669;BME280;29384;42.028;21.388;2022-07-29T13:39:27;98206.81;;;33.10;32.86
42669;BME280;29384;42.028;21.388;2022-07-29T13:41:52;98196.50;;;32.97;35.35
42669;BME280;29384;42.028;21.388;2022-07-29T13:44:18;98195.75;;;32.90;33.86
42669;BME280;29384;42.028;21.388;2022-07-29T13:46:43;98198.16;;;32.84;32.78
42669;BME280;29384;42.028;21.388;2022-07-29T13:49:09;98201.53;;;32.95;32.20
42669;BME280;29384;42.028;21.388;2022-07-29T13:51:36;98204.75;;;33.21;32.38
42669;BME280;29384;42.028;21.388;2022-07-29T13:54:01;98194.72;;;33.18;33.41
42669;BME280;29384;42.028;21.388;2022-07-29T13:56:27;98204.25;;;32.92;32.09
42669;BME280;29384;42.028;21.388;2022-07-29T13:58:53;98198.88;;;32.88;32.83
42669;BME280;29384;42.028;21.388;2022-07-29T14:01:18;98208.28;;;32.76;33.53
42669;BME280;29384;42.028;21.388;2022-07-29T14:03:44;98197.50;;;32.73;32.20
42669;BME280;29384;42.028;21.388;2022-07-29T14:06:09;98188.63;;;32.65;32.44
42669;BME280;29384;42.028;21.388;2022-07-29T14:08:34;98189.81;;;32.64;33.15
42669;BME280;29384;42.028;21.388;2022-07-29T14:11:00;98190.63;;;32.61;32.23
42669;BME280;29384;42.028;21.388;2022-07-29T14:13:26;98182.47;;;32.65;33.22
42669;BME280;29384;42.028;21.388;2022-07-29T14:15:52;98182.88;;;32.63;32.11
42669;BME280;29384;42.028;21.388;2022-07-29T14:18:17;98179.78;;;32.61;31.59
42669;BME280;29384;42.028;21.388;2022-07-29T14:20:43;98182.91;;;32.59;32.47
42669;BME280;29384;42.028;21.388;2022-07-29T14:23:08;98184.47;;;32.57;33.85
42669;BME280;29384;42.028;21.388;2022-07-29T14:28:55;98180.28;;;32.52;34.61